sensor_id;sensor_type;location;lat;lon;timestamp;P1;durP1;ratioP1;P2;durP2;ratioP2
8958;SDS011;4514;49.476;8.484;2022-12-19T00:01:26;45.03;;;31.37;;
8958;SDS011;4514;49.476;8.484;2022-12-19T00:04:00;44.37;;;32.07;;
8958;SDS011;4514;49.476;8.484;2022-12-19T00:06:29;44.00;;;31.70;;
8958;SDS011;4514;49.476;8.484;2022-12-19T00:08:55;44.57;;;32.33;;
8958;SDS011;4514;49.476;8.484;2022-12-19T00:11:24;46.30;;;33.13;;
8958;SDS011;4514;49.476;8.484;2022-12-19T00:13:51;48.27;;;33.00;;
8958;SDS011;4514;49.476;8.484;2022-12-19T00:16:21;43.50;;;30.77;;
8958;SDS011;4514;49.476;8.484;2022-12-19T00:18:50;45.03;;;33.33;;
8958;SDS011;4514;49.476;8.484;2022-12-19T00:21:18;46.27;;;32.37;;
8958;SDS011;4514;49.476;8.484;2022-12-19T00:23:50;44.50;;;32.23;;
8958;SDS011;4514;49.476;8.484;2022-12-19T00:26:25;41.93;;;30.90;;
8958;SDS011;4514;49.476;8.484;2022-12-19T00:28:54;48.30;;;33.27;;
8958;SDS011;4514;49.476;8.484;2022-12-19T00:31:21;42.53;;;30.93;;
8958;SDS011;4514;49.476;8.484;2022-12-19T00:33:47;42.47;;;30.87;;
8958;SDS011;4514;49.476;8.484;2022-12-19T00:36:16;41.87;;;30.13;;
8958;SDS011;4514;49.476;8.484;2022-12-19T00:38:45;39.43;;;28.53;;
8958;SDS011;4514;49.476;8.484;2022-12-19T00:41:15;37.30;;;26.13;;
8958;SDS011;4514;49.476;8.484;2022-12-19T00:43:53;36.50;;;25.83;;
8958;SDS011;4514;49.476;8.484;2022-12-19T00:46:20;37.03;;;26.27;;
8958;SDS011;4514;49.476;8.484;2022-12-19T00:48:45;37.70;;;26.47;;
8958;SDS011;4514;49.476;8.484;2022-12-19T00:51:15;34.77;;;25.63;;
8958;SDS011;4514;49.476;8.484;2022-12-19T00:53:45;34.33;;;26.07;;
8958;SDS011;4514;49.476;8.484;2022-12-19T00:56:13;34.47;;;24.93;;
8958;SDS011;4514;49.476;8.484;2022-12-19T00:58:45;33.63;;;24.87;;
8958;SDS011;4514;49.476;8.484;2022-12-19T01:01:20;35.73;;;26.23;;
8958;SDS011;4514;49.476;8.484;2022-12-19T01:03:48;34.23;;;25.40;;
8958;SDS011;4514;49.476;8.484;2022-12-19T01:06:14;35.07;;;25.47;;
8958;SDS011;4514;49.476;8.484;2022-12-19T01:08:40;32.73;;;24.33;;
8958;SDS011;4514;49.476;8.484;2022-12-19T01:11:06;35.10;;;24.67;;
8958;SDS011;4514;49.476;8.484;2022-12-19T01:13:34;36.10;;;25.67;;
8958;SDS011;4514;49.476;8.484;2022-12-19T01:16:02;34.80;;;25.30;;
8958;SDS011;4514;49.476;8.484;2022-12-19T01:18:30;32.13;;;24.00;;
8958;SDS011;4514;49.476;8.484;2022-12-19T01:21:00;35.30;;;24.33;;
8958;SDS011;4514;49.476;8.484;2022-12-19T01:23:26;33.73;;;23.73;;
8958;SDS011;4514;49.476;8.484;2022-12-19T01:25:52;35.77;;;24.93;;
8958;SDS011;4514;49.476;8.484;2022-12-19T01:28:20;33.93;;;23.73;;
8958;SDS011;4514;49.476;8.484;2022-12-19T01:30:48;32.57;;;24.10;;
8958;SDS011;4514;49.476;8.484;2022-12-19T01:33:14;35.00;;;25.53;;
8958;SDS011;4514;49.476;8.484;2022-12-19T01:35:41;33.37;;;24.10;;
8958;SDS011;4514;49.476;8.484;2022-12-19T01:38:11;33.70;;;24.37;;
8958;SDS011;4514;49.476;8.484;2022-12-19T01:40:38;34.77;;;24.60;;
8958;SDS011;4514;49.476;8.484;2022-12-19T01:43:03;34.40;;;23.53;;
8958;SDS011;4514;49.476;8.484;2022-12-19T01:45:33;32.63;;;23.53;;
8958;SDS011;4514;49.476;8.484;2022-12-19T01:48:00;33.37;;;24.13;;
8958;SDS011;4514;49.476;8.484;2022-12-19T01:50:36;34.22;;;25.75;;
8958;SDS011;4514;49.476;8.484;2022-12-19T01:53:04;30.63;;;21.30;;
8958;SDS011;4514;49.476;8.484;2022-12-19T01:55:31;33.90;;;22.13;;
8958;SDS011;4514;49.476;8.484;2022-12-19T01:57:57;33.90;;;23.57;;
8958;SDS011;4514;49.476;8.484;2022-12-19T02:00:25;32.27;;;23.20;;
8958;SDS011;4514;49.476;8.484;2022-12-19T02:02:58;35.67;;;24.17;;
8958;SDS011;4514;49.476;8.484;2022-12-19T02:05:29;33.40;;;22.93;;
8958;SDS011;4514;49.476;8.484;2022-12-19T02:07:55;33.20;;;23.47;;
8958;SDS011;4514;49.476;8.484;2022-12-19T02:10:25;34.20;;;23.07;;
8958;SDS011;4514;49.476;8.484;2022-12-19T02:12:53;34.03;;;24.17;;
8958;SDS011;4514;49.476;8.484;2022-12-19T02:15:20;33.85;;;25.40;;
8958;SDS011;4514;49.476;8.484;2022-12-19T02:31:28;31.73;;;23.20;;
8958;SDS011;4514;49.476;8.484;2022-12-19T02:34:02;32.10;;;22.80;;
8958;SDS011;4514;49.476;8.484;2022-12-19T02:39:02;32.40;;;22.73;;
8958;SDS011;4514;49.476;8.484;2022-12-19T02:41:32;33.33;;;24.03;;
8958;SDS011;4514;49.476;8.484;2022-12-19T02:44:11;31.47;;;22.90;;
8958;SDS011;4514;49.476;8.484;2022-12-19T02:46:40;32.77;;;22.60;;
8958;SDS011;4514;49.476;8.484;2022-12-19T02:49:09;33.20;;;22.43;;
8958;SDS011;4514;49.476;8.484;2022-12-19T02:51:36;33.97;;;24.30;;
8958;SDS011;4514;49.476;8.484;2022-12-19T02:54:02;32.60;;;23.27;;
8958;SDS011;4514;49.476;8.484;2022-12-19T03:02:11;34.10;;;23.53;;
8958;SDS011;4514;49.476;8.484;2022-12-19T03:04:47;32.20;;;23.00;;
8958;SDS011;4514;49.476;8.484;2022-12-19T03:13:00;33.47;;;23.20;;
8958;SDS011;4514;49.476;8.484;2022-12-19T03:15:28;32.80;;;22.93;;
8958;SDS011;4514;49.476;8.484;2022-12-19T03:17:57;30.20;;;22.20;;
8958;SDS011;4514;49.476;8.484;2022-12-19T03:20:48;34.63;;;22.93;;
8958;SDS011;4514;49.476;8.484;2022-12-19T03:23:17;33.87;;;24.13;;
8958;SDS011;4514;49.476;8.484;2022-12-19T03:25:48;33.03;;;23.83;;
8958;SDS011;4514;49.476;8.484;2022-12-19T03:28:20;33.35;;;24.70;;
8958;SDS011;4514;49.476;8.484;2022-12-19T03:30:52;32.80;;;21.73;;
8958;SDS011;4514;49.476;8.484;2022-12-19T03:33:18;31.57;;;20.43;;
8958;SDS011;4514;49.476;8.484;2022-12-19T03:35:47;31.93;;;19.93;;
8958;SDS011;4514;49.476;8.484;2022-12-19T03:38:16;30.83;;;20.43;;
8958;SDS011;4514;49.476;8.484;2022-12-19T03:40:42;31.57;;;22.23;;
8958;SDS011;4514;49.476;8.484;2022-12-19T03:43:08;32.67;;;23.03;;
8958;SDS011;4514;49.476;8.484;2022-12-19T03:45:41;32.80;;;22.43;;
8958;SDS011;4514;49.476;8.484;2022-12-19T03:48:14;29.00;;;21.40;;
8958;SDS011;4514;49.476;8.484;2022-12-19T03:50:52;31.65;;;22.95;;
8958;SDS011;4514;49.476;8.484;2022-12-19T03:53:23;32.63;;;21.43;;
8958;SDS011;4514;49.476;8.484;2022-12-19T03:56:06;31.88;;;23.42;;
8958;SDS011;4514;49.476;8.484;2022-12-19T03:58:34;31.77;;;20.53;;
8958;SDS011;4514;49.476;8.484;2022-12-19T04:01:02;31.30;;;20.70;;
8958;SDS011;4514;49.476;8.484;2022-12-19T04:03:31;31.33;;;21.90;;
8958;SDS011;4514;49.476;8.484;2022-12-19T04:05:56;31.37;;;21.30;;
8958;SDS011;4514;49.476;8.484;2022-12-19T04:08:25;31.63;;;21.23;;
8958;SDS011;4514;49.476;8.484;2022-12-19T04:10:53;33.73;;;22.40;;
8958;SDS011;4514;49.476;8.484;2022-12-19T04:13:29;33.37;;;23.57;;
8958;SDS011;4514;49.476;8.484;2022-12-19T04:18:47;30.80;;;20.53;;
8958;SDS011;4514;49.476;8.484;2022-12-19T04:21:24;32.13;;;22.60;;
8958;SDS011;4514;49.476;8.484;2022-12-19T04:23:54;32.17;;;22.87;;
8958;SDS011;4514;49.476;8.484;2022-12-19T04:26:27;32.80;;;23.63;;
8958;SDS011;4514;49.476;8.484;2022-12-19T04:29:00;33.80;;;23.17;;
8958;SDS011;4514;49.476;8.484;2022-12-19T04:31:27;32.27;;;22.57;;
8958;SDS011;4514;49.476;8.484;2022-12-19T04:33:52;31.53;;;22.87;;
8958;SDS011;4514;49.476;8.484;2022-12-19T04:36:20;33.63;;;23.70;;
8958;SDS011;4514;49.476;8.484;2022-12-19T04:38:46;31.90;;;22.37;;
8958;SDS011;4514;49.476;8.484;2022-12-19T04:41:11;33.83;;;22.70;;
8958;SDS011;4514;49.476;8.484;2022-12-19T04:43:39;35.07;;;22.63;;
8958;SDS011;4514;49.476;8.484;2022-12-19T04:46:04;32.53;;;21.93;;
8958;SDS011;4514;49.476;8.484;2022-12-19T04:48:30;31.70;;;22.73;;
8958;SDS011;4514;49.476;8.484;2022-12-19T04:50:55;32.10;;;21.90;;
8958;SDS011;4514;49.476;8.484;2022-12-19T04:53:21;32.30;;;23.33;;
8958;SDS011;4514;49.476;8.484;2022-12-19T04:55:49;33.03;;;22.00;;
8958;SDS011;4514;49.476;8.484;2022-12-19T04:58:14;32.23;;;24.13;;
8958;SDS011;4514;49.476;8.484;2022-12-19T05:00:40;31.57;;;23.40;;
8958;SDS011;4514;49.476;8.484;2022-12-19T05:03:06;33.20;;;24.05;;
8958;SDS011;4514;49.476;8.484;2022-12-19T05:05:31;32.80;;;23.20;;
8958;SDS011;4514;49.476;8.484;2022-12-19T05:08:01;30.60;;;19.73;;
8958;SDS011;4514;49.476;8.484;2022-12-19T05:10:27;32.10;;;20.80;;
8958;SDS011;4514;49.476;8.484;2022-12-19T05:12:53;31.97;;;22.80;;
8958;SDS011;4514;49.476;8.484;2022-12-19T05:15:18;32.13;;;23.23;;
8958;SDS011;4514;49.476;8.484;2022-12-19T05:17:44;34.43;;;24.27;;
8958;SDS011;4514;49.476;8.484;2022-12-19T05:20:09;33.93;;;23.97;;
8958;SDS011;4514;49.476;8.484;2022-12-19T05:22:35;31.87;;;23.03;;
8958;SDS011;4514;49.476;8.484;2022-12-19T05:25:00;35.77;;;23.33;;
8958;SDS011;4514;49.476;8.484;2022-12-19T05:27:28;32.77;;;23.37;;
8958;SDS011;4514;49.476;8.484;2022-12-19T05:29:53;33.67;;;23.37;;
8958;SDS011;4514;49.476;8.484;2022-12-19T05:32:21;32.17;;;22.37;;
8958;SDS011;4514;49.476;8.484;2022-12-19T05:34:46;34.50;;;22.93;;
8958;SDS011;4514;49.476;8.484;2022-12-19T05:37:14;35.67;;;24.00;;
8958;SDS011;4514;49.476;8.484;2022-12-19T05:39:42;33.67;;;23.17;;
8958;SDS011;4514;49.476;8.484;2022-12-19T05:42:07;33.63;;;23.47;;
8958;SDS011;4514;49.476;8.484;2022-12-19T05:44:33;33.80;;;23.93;;
8958;SDS011;4514;49.476;8.484;2022-12-19T05:47:01;33.40;;;23.55;;
8958;SDS011;4514;49.476;8.484;2022-12-19T05:49:30;34.63;;;21.27;;
8958;SDS011;4514;49.476;8.484;2022-12-19T05:51:55;33.83;;;25.27;;
8958;SDS011;4514;49.476;8.484;2022-12-19T05:54:21;33.90;;;22.07;;
8958;SDS011;4514;49.476;8.484;2022-12-19T05:56:46;33.90;;;22.00;;
8958;SDS011;4514;49.476;8.484;2022-12-19T05:59:12;34.43;;;22.53;;
8958;SDS011;4514;49.476;8.484;2022-12-19T06:01:37;32.67;;;20.53;;
8958;SDS011;4514;49.476;8.484;2022-12-19T06:04:03;32.40;;;22.77;;
8958;SDS011;4514;49.476;8.484;2022-12-19T06:06:29;32.10;;;24.15;;
8958;SDS011;4514;49.476;8.484;2022-12-19T06:08:58;34.80;;;22.13;;
8958;SDS011;4514;49.476;8.484;2022-12-19T06:11:24;30.70;;;21.30;;
8958;SDS011;4514;49.476;8.484;2022-12-19T06:13:50;32.88;;;25.60;;
8958;SDS011;4514;49.476;8.484;2022-12-19T06:16:17;32.13;;;21.77;;
8958;SDS011;4514;49.476;8.484;2022-12-19T06:18:43;35.17;;;21.90;;
8958;SDS011;4514;49.476;8.484;2022-12-19T06:21:12;30.37;;;20.77;;
8958;SDS011;4514;49.476;8.484;2022-12-19T06:23:43;33.63;;;21.97;;
8958;SDS011;4514;49.476;8.484;2022-12-19T06:26:09;31.63;;;22.07;;
8958;SDS011;4514;49.476;8.484;2022-12-19T06:28:36;33.33;;;21.43;;
8958;SDS011;4514;49.476;8.484;2022-12-19T06:31:04;32.10;;;21.17;;
8958;SDS011;4514;49.476;8.484;2022-12-19T06:33:33;30.93;;;22.10;;
8958;SDS011;4514;49.476;8.484;2022-12-19T06:36:06;32.53;;;25.15;;
8958;SDS011;4514;49.476;8.484;2022-12-19T06:38:34;32.10;;;22.27;;
8958;SDS011;4514;49.476;8.484;2022-12-19T06:41:01;34.07;;;22.37;;
8958;SDS011;4514;49.476;8.484;2022-12-19T06:43:46;30.90;;;21.10;;
8958;SDS011;4514;49.476;8.484;2022-12-19T06:46:13;32.97;;;21.80;;
8958;SDS011;4514;49.476;8.484;2022-12-19T06:48:41;37.37;;;22.97;;
8958;SDS011;4514;49.476;8.484;2022-12-19T06:51:11;33.83;;;22.93;;
8958;SDS011;4514;49.476;8.484;2022-12-19T06:53:36;31.50;;;22.63;;
8958;SDS011;4514;49.476;8.484;2022-12-19T06:56:02;32.20;;;25.03;;
8958;SDS011;4514;49.476;8.484;2022-12-19T06:58:31;31.80;;;21.70;;
8958;SDS011;4514;49.476;8.484;2022-12-19T07:01:00;32.17;;;22.53;;
8958;SDS011;4514;49.476;8.484;2022-12-19T07:03:29;32.33;;;20.97;;
8958;SDS011;4514;49.476;8.484;2022-12-19T07:05:58;30.03;;;20.70;;
8958;SDS011;4514;49.476;8.484;2022-12-19T07:08:27;32.33;;;21.17;;
8958;SDS011;4514;49.476;8.484;2022-12-19T07:10:53;30.10;;;19.80;;
8958;SDS011;4514;49.476;8.484;2022-12-19T07:13:19;32.80;;;22.10;;
8958;SDS011;4514;49.476;8.484;2022-12-19T07:15:47;33.13;;;21.33;;
8958;SDS011;4514;49.476;8.484;2022-12-19T07:18:14;32.50;;;23.85;;
8958;SDS011;4514;49.476;8.484;2022-12-19T07:20:42;35.30;;;22.73;;
8958;SDS011;4514;49.476;8.484;2022-12-19T07:23:12;30.90;;;21.50;;
8958;SDS011;4514;49.476;8.484;2022-12-19T07:25:40;30.43;;;19.93;;
8958;SDS011;4514;49.476;8.484;2022-12-19T07:28:06;32.20;;;21.60;;
8958;SDS011;4514;49.476;8.484;2022-12-19T07:30:31;32.97;;;22.77;;
8958;SDS011;4514;49.476;8.484;2022-12-19T07:32:57;30.60;;;21.40;;
8958;SDS011;4514;49.476;8.484;2022-12-19T07:35:27;29.07;;;20.40;;
8958;SDS011;4514;49.476;8.484;2022-12-19T07:37:52;31.10;;;22.13;;
8958;SDS011;4514;49.476;8.484;2022-12-19T07:40:18;33.57;;;23.33;;
8958;SDS011;4514;49.476;8.484;2022-12-19T07:42:44;29.40;;;20.57;;
8958;SDS011;4514;49.476;8.484;2022-12-19T07:45:09;32.70;;;20.93;;
8958;SDS011;4514;49.476;8.484;2022-12-19T07:47:35;34.10;;;21.67;;
8958;SDS011;4514;49.476;8.484;2022-12-19T07:50:05;31.67;;;20.53;;
8958;SDS011;4514;49.476;8.484;2022-12-19T07:52:36;29.87;;;20.53;;
8958;SDS011;4514;49.476;8.484;2022-12-19T07:55:01;30.20;;;20.80;;
8958;SDS011;4514;49.476;8.484;2022-12-19T07:57:29;29.90;;;20.93;;
8958;SDS011;4514;49.476;8.484;2022-12-19T07:59:54;30.97;;;21.27;;
8958;SDS011;4514;49.476;8.484;2022-12-19T08:02:20;32.97;;;21.50;;
8958;SDS011;4514;49.476;8.484;2022-12-19T08:04:47;29.63;;;19.97;;
8958;SDS011;4514;49.476;8.484;2022-12-19T08:07:13;33.10;;;25.73;;
8958;SDS011;4514;49.476;8.484;2022-12-19T08:09:38;32.60;;;21.97;;
8958;SDS011;4514;49.476;8.484;2022-12-19T08:12:04;33.63;;;22.33;;
8958;SDS011;4514;49.476;8.484;2022-12-19T08:14:29;30.70;;;20.27;;
8958;SDS011;4514;49.476;8.484;2022-12-19T08:16:55;31.20;;;22.23;;
8958;SDS011;4514;49.476;8.484;2022-12-19T08:19:20;32.13;;;22.50;;
8958;SDS011;4514;49.476;8.484;2022-12-19T08:21:50;32.17;;;22.73;;
8958;SDS011;4514;49.476;8.484;2022-12-19T08:24:16;31.75;;;25.00;;
8958;SDS011;4514;49.476;8.484;2022-12-19T08:26:43;34.00;;;22.90;;
8958;SDS011;4514;49.476;8.484;2022-12-19T08:29:09;32.93;;;20.93;;
8958;SDS011;4514;49.476;8.484;2022-12-19T08:31:39;30.33;;;21.17;;
8958;SDS011;4514;49.476;8.484;2022-12-19T08:34:07;33.20;;;24.73;;
8958;SDS011;4514;49.476;8.484;2022-12-19T08:36:32;30.87;;;22.40;;
8958;SDS011;4514;49.476;8.484;2022-12-19T08:39:02;31.63;;;21.57;;
8958;SDS011;4514;49.476;8.484;2022-12-19T08:41:28;31.77;;;21.30;;
8958;SDS011;4514;49.476;8.484;2022-12-19T08:43:53;32.30;;;21.60;;
8958;SDS011;4514;49.476;8.484;2022-12-19T08:46:19;30.60;;;20.63;;
8958;SDS011;4514;49.476;8.484;2022-12-19T08:48:45;33.20;;;22.23;;
8958;SDS011;4514;49.476;8.484;2022-12-19T08:51:13;30.67;;;21.30;;
8958;SDS011;4514;49.476;8.484;2022-12-19T08:53:39;31.00;;;21.87;;
8958;SDS011;4514;49.476;8.484;2022-12-19T08:56:10;31.07;;;22.30;;
8958;SDS011;4514;49.476;8.484;2022-12-19T08:58:36;30.47;;;20.63;;
8958;SDS011;4514;49.476;8.484;2022-12-19T09:01:02;32.80;;;21.73;;
8958;SDS011;4514;49.476;8.484;2022-12-19T09:03:30;32.10;;;21.10;;
8958;SDS011;4514;49.476;8.484;2022-12-19T09:05:58;31.13;;;21.07;;
8958;SDS011;4514;49.476;8.484;2022-12-19T09:08:25;35.33;;;21.37;;
8958;SDS011;4514;49.476;8.484;2022-12-19T09:10:56;35.03;;;22.10;;
8958;SDS011;4514;49.476;8.484;2022-12-19T09:13:26;32.73;;;20.90;;
8958;SDS011;4514;49.476;8.484;2022-12-19T09:15:59;31.53;;;21.47;;
8958;SDS011;4514;49.476;8.484;2022-12-19T09:18:29;30.17;;;19.87;;
8958;SDS011;4514;49.476;8.484;2022-12-19T09:20:55;31.17;;;21.30;;
8958;SDS011;4514;49.476;8.484;2022-12-19T09:23:22;32.23;;;22.60;;
8958;SDS011;4514;49.476;8.484;2022-12-19T09:25:48;32.43;;;22.03;;
8958;SDS011;4514;49.476;8.484;2022-12-19T09:28:13;30.13;;;22.00;;
8958;SDS011;4514;49.476;8.484;2022-12-19T09:30:39;30.33;;;20.93;;
8958;SDS011;4514;49.476;8.484;2022-12-19T09:33:05;31.03;;;21.93;;
8958;SDS011;4514;49.476;8.484;2022-12-19T09:35:33;30.17;;;20.97;;
8958;SDS011;4514;49.476;8.484;2022-12-19T09:37:58;32.23;;;21.53;;
8958;SDS011;4514;49.476;8.484;2022-12-19T09:40:23;31.17;;;21.43;;
8958;SDS011;4514;49.476;8.484;2022-12-19T09:49:30;29.03;;;20.83;;
8958;SDS011;4514;49.476;8.484;2022-12-19T09:52:05;29.33;;;21.20;;
8958;SDS011;4514;49.476;8.484;2022-12-19T10:00:06;31.23;;;21.87;;
8958;SDS011;4514;49.476;8.484;2022-12-19T10:05:40;31.97;;;22.43;;
8958;SDS011;4514;49.476;8.484;2022-12-19T10:08:12;33.90;;;21.30;;
8958;SDS011;4514;49.476;8.484;2022-12-19T10:10:49;29.30;;;20.60;;
8958;SDS011;4514;49.476;8.484;2022-12-19T10:18:56;32.67;;;20.50;;
8958;SDS011;4514;49.476;8.484;2022-12-19T10:35:37;29.92;;;24.25;;
8958;SDS011;4514;49.476;8.484;2022-12-19T10:43:49;31.73;;;21.47;;
8958;SDS011;4514;49.476;8.484;2022-12-19T10:46:36;30.33;;;20.37;;
8958;SDS011;4514;49.476;8.484;2022-12-19T10:52:02;30.67;;;19.70;;
8958;SDS011;4514;49.476;8.484;2022-12-19T11:05:30;26.27;;;18.80;;
8958;SDS011;4514;49.476;8.484;2022-12-19T11:13:13;27.77;;;22.50;;
8958;SDS011;4514;49.476;8.484;2022-12-19T11:15:48;26.40;;;19.63;;
8958;SDS011;4514;49.476;8.484;2022-12-19T11:18:15;26.40;;;18.57;;
8958;SDS011;4514;49.476;8.484;2022-12-19T11:21:03;26.17;;;18.80;;
8958;SDS011;4514;49.476;8.484;2022-12-19T11:23:28;25.93;;;18.63;;
8958;SDS011;4514;49.476;8.484;2022-12-19T11:25:56;25.27;;;18.20;;
8958;SDS011;4514;49.476;8.484;2022-12-19T11:28:35;24.83;;;18.60;;
8958;SDS011;4514;49.476;8.484;2022-12-19T11:31:07;26.90;;;18.63;;
8958;SDS011;4514;49.476;8.484;2022-12-19T11:33:34;26.07;;;19.47;;
8958;SDS011;4514;49.476;8.484;2022-12-19T11:36:01;25.20;;;18.93;;
8958;SDS011;4514;49.476;8.484;2022-12-19T11:41:04;27.37;;;19.30;;
8958;SDS011;4514;49.476;8.484;2022-12-19T11:43:38;27.27;;;19.53;;
8958;SDS011;4514;49.476;8.484;2022-12-19T11:46:16;26.37;;;18.67;;
8958;SDS011;4514;49.476;8.484;2022-12-19T11:48:49;25.53;;;18.27;;
8958;SDS011;4514;49.476;8.484;2022-12-19T11:57:21;27.00;;;19.13;;
8958;SDS011;4514;49.476;8.484;2022-12-19T11:59:47;26.17;;;18.93;;
8958;SDS011;4514;49.476;8.484;2022-12-19T12:08:32;29.80;;;22.92;;
8958;SDS011;4514;49.476;8.484;2022-12-19T12:13:56;23.80;;;17.43;;
8958;SDS011;4514;49.476;8.484;2022-12-19T12:16:39;26.37;;;18.40;;
8958;SDS011;4514;49.476;8.484;2022-12-19T12:27:45;27.17;;;19.17;;
8958;SDS011;4514;49.476;8.484;2022-12-19T12:30:28;25.37;;;18.33;;
8958;SDS011;4514;49.476;8.484;2022-12-19T12:33:07;24.00;;;17.77;;
8958;SDS011;4514;49.476;8.484;2022-12-19T12:35:37;25.90;;;18.27;;
8958;SDS011;4514;49.476;8.484;2022-12-19T12:38:15;24.50;;;18.17;;
8958;SDS011;4514;49.476;8.484;2022-12-19T12:44:13;27.47;;;18.17;;
8958;SDS011;4514;49.476;8.484;2022-12-19T12:46:41;24.40;;;17.50;;
8958;SDS011;4514;49.476;8.484;2022-12-19T12:51:57;23.80;;;18.27;;
8958;SDS011;4514;49.476;8.484;2022-12-19T12:54:25;27.70;;;19.63;;
8958;SDS011;4514;49.476;8.484;2022-12-19T12:56:56;25.47;;;18.17;;
8958;SDS011;4514;49.476;8.484;2022-12-19T12:59:24;24.20;;;18.37;;
8958;SDS011;4514;49.476;8.484;2022-12-19T13:01:53;24.10;;;18.00;;
8958;SDS011;4514;49.476;8.484;2022-12-19T13:04:33;24.07;;;18.07;;
8958;SDS011;4514;49.476;8.484;2022-12-19T13:07:18;24.93;;;17.40;;
8958;SDS011;4514;49.476;8.484;2022-12-19T13:09:44;28.63;;;19.03;;
8958;SDS011;4514;49.476;8.484;2022-12-19T13:12:23;27.83;;;19.33;;
8958;SDS011;4514;49.476;8.484;2022-12-19T13:23:01;23.27;;;17.97;;
8958;SDS011;4514;49.476;8.484;2022-12-19T13:30:30;23.40;;;18.07;;
8958;SDS011;4514;49.476;8.484;2022-12-19T13:38:00;25.07;;;18.33;;
8958;SDS011;4514;49.476;8.484;2022-12-19T13:40:32;23.50;;;16.87;;
8958;SDS011;4514;49.476;8.484;2022-12-19T13:45:53;25.25;;;20.23;;
8958;SDS011;4514;49.476;8.484;2022-12-19T13:51:21;23.97;;;17.30;;
8958;SDS011;4514;49.476;8.484;2022-12-19T13:53:50;23.33;;;17.27;;
8958;SDS011;4514;49.476;8.484;2022-12-19T13:56:20;22.77;;;16.97;;
8958;SDS011;4514;49.476;8.484;2022-12-19T13:58:50;24.40;;;17.33;;
8958;SDS011;4514;49.476;8.484;2022-12-19T14:01:20;23.13;;;17.23;;
8958;SDS011;4514;49.476;8.484;2022-12-19T14:03:52;24.07;;;16.60;;
8958;SDS011;4514;49.476;8.484;2022-12-19T14:06:26;23.67;;;16.63;;
8958;SDS011;4514;49.476;8.484;2022-12-19T14:08:54;23.73;;;19.73;;
8958;SDS011;4514;49.476;8.484;2022-12-19T14:11:25;24.00;;;18.33;;
8958;SDS011;4514;49.476;8.484;2022-12-19T14:13:58;24.57;;;17.07;;
8958;SDS011;4514;49.476;8.484;2022-12-19T14:16:51;25.33;;;18.03;;
8958;SDS011;4514;49.476;8.484;2022-12-19T14:19:21;22.83;;;17.10;;
8958;SDS011;4514;49.476;8.484;2022-12-19T14:21:50;23.67;;;17.73;;
8958;SDS011;4514;49.476;8.484;2022-12-19T14:26:47;25.60;;;17.17;;
8958;SDS011;4514;49.476;8.484;2022-12-19T14:29:20;24.83;;;16.67;;
8958;SDS011;4514;49.476;8.484;2022-12-19T14:31:48;24.30;;;18.48;;
8958;SDS011;4514;49.476;8.484;2022-12-19T14:34:19;21.97;;;16.57;;
8958;SDS011;4514;49.476;8.484;2022-12-19T14:36:47;20.87;;;16.30;;
8958;SDS011;4514;49.476;8.484;2022-12-19T14:39:15;22.07;;;17.60;;
8958;SDS011;4514;49.476;8.484;2022-12-19T14:41:42;25.00;;;17.33;;
8958;SDS011;4514;49.476;8.484;2022-12-19T14:47:19;22.73;;;17.60;;
8958;SDS011;4514;49.476;8.484;2022-12-19T14:49:49;23.03;;;16.43;;
8958;SDS011;4514;49.476;8.484;2022-12-19T14:52:37;24.97;;;17.00;;
8958;SDS011;4514;49.476;8.484;2022-12-19T14:57:45;23.13;;;17.50;;
8958;SDS011;4514;49.476;8.484;2022-12-19T15:00:23;24.47;;;17.07;;
8958;SDS011;4514;49.476;8.484;2022-12-19T15:02:55;23.80;;;17.33;;
8958;SDS011;4514;49.476;8.484;2022-12-19T15:05:24;25.27;;;18.03;;
8958;SDS011;4514;49.476;8.484;2022-12-19T15:07:53;26.50;;;19.47;;
8958;SDS011;4514;49.476;8.484;2022-12-19T15:10:23;24.33;;;17.80;;
8958;SDS011;4514;49.476;8.484;2022-12-19T15:18:58;22.80;;;17.27;;
8958;SDS011;4514;49.476;8.484;2022-12-19T15:20:58;21.93;;;17.20;;
8958;SDS011;4514;49.476;8.484;2022-12-19T15:23:25;23.97;;;18.03;;
8958;SDS011;4514;49.476;8.484;2022-12-19T15:25:51;23.37;;;17.53;;
8958;SDS011;4514;49.476;8.484;2022-12-19T15:28:19;24.07;;;17.70;;
8958;SDS011;4514;49.476;8.484;2022-12-19T15:30:50;23.53;;;17.60;;
8958;SDS011;4514;49.476;8.484;2022-12-19T15:33:19;23.83;;;17.73;;
8958;SDS011;4514;49.476;8.484;2022-12-19T15:35:45;25.77;;;17.90;;
8958;SDS011;4514;49.476;8.484;2022-12-19T15:38:12;23.73;;;17.80;;
8958;SDS011;4514;49.476;8.484;2022-12-19T15:40:42;33.90;;;25.58;;
8958;SDS011;4514;49.476;8.484;2022-12-19T15:43:12;26.50;;;20.13;;
8958;SDS011;4514;49.476;8.484;2022-12-19T15:45:40;27.90;;;19.93;;
8958;SDS011;4514;49.476;8.484;2022-12-19T15:48:07;24.40;;;18.13;;
8958;SDS011;4514;49.476;8.484;2022-12-19T15:50:39;27.60;;;19.47;;
8958;SDS011;4514;49.476;8.484;2022-12-19T15:53:11;25.20;;;19.00;;
8958;SDS011;4514;49.476;8.484;2022-12-19T15:56:00;28.03;;;19.60;;
8958;SDS011;4514;49.476;8.484;2022-12-19T15:58:25;26.20;;;18.40;;
8958;SDS011;4514;49.476;8.484;2022-12-19T16:00:53;27.33;;;18.80;;
8958;SDS011;4514;49.476;8.484;2022-12-19T16:03:19;24.30;;;18.93;;
8958;SDS011;4514;49.476;8.484;2022-12-19T16:05:45;27.53;;;19.57;;
8958;SDS011;4514;49.476;8.484;2022-12-19T16:08:11;25.80;;;19.43;;
8958;SDS011;4514;49.476;8.484;2022-12-19T16:10:41;25.53;;;19.03;;
8958;SDS011;4514;49.476;8.484;2022-12-19T16:13:10;25.27;;;18.97;;
8958;SDS011;4514;49.476;8.484;2022-12-19T16:15:40;25.77;;;19.17;;
8958;SDS011;4514;49.476;8.484;2022-12-19T16:18:08;25.07;;;18.43;;
8958;SDS011;4514;49.476;8.484;2022-12-19T16:20:35;25.33;;;21.20;;
8958;SDS011;4514;49.476;8.484;2022-12-19T16:23:02;26.27;;;19.07;;
8958;SDS011;4514;49.476;8.484;2022-12-19T16:25:51;25.83;;;19.63;;
8958;SDS011;4514;49.476;8.484;2022-12-19T16:28:24;28.40;;;20.10;;
8958;SDS011;4514;49.476;8.484;2022-12-19T16:30:54;27.30;;;19.47;;
8958;SDS011;4514;49.476;8.484;2022-12-19T16:33:24;32.77;;;24.80;;
8958;SDS011;4514;49.476;8.484;2022-12-19T16:35:54;26.10;;;19.93;;
8958;SDS011;4514;49.476;8.484;2022-12-19T16:38:20;23.53;;;17.83;;
8958;SDS011;4514;49.476;8.484;2022-12-19T16:40:49;22.73;;;17.17;;
8958;SDS011;4514;49.476;8.484;2022-12-19T16:45:51;26.23;;;18.63;;
8958;SDS011;4514;49.476;8.484;2022-12-19T16:48:20;24.90;;;18.23;;
8958;SDS011;4514;49.476;8.484;2022-12-19T16:50:49;25.80;;;18.60;;
8958;SDS011;4514;49.476;8.484;2022-12-19T16:53:20;23.27;;;17.80;;
8958;SDS011;4514;49.476;8.484;2022-12-19T16:55:48;23.93;;;18.10;;
8958;SDS011;4514;49.476;8.484;2022-12-19T16:58:17;26.37;;;18.47;;
8958;SDS011;4514;49.476;8.484;2022-12-19T17:00:48;27.07;;;18.87;;
8958;SDS011;4514;49.476;8.484;2022-12-19T17:03:21;27.40;;;19.63;;
8958;SDS011;4514;49.476;8.484;2022-12-19T17:05:47;50.03;;;37.60;;
8958;SDS011;4514;49.476;8.484;2022-12-19T17:08:15;49.23;;;33.93;;
8958;SDS011;4514;49.476;8.484;2022-12-19T17:10:40;42.03;;;29.43;;
8958;SDS011;4514;49.476;8.484;2022-12-19T17:13:08;40.27;;;29.17;;
8958;SDS011;4514;49.476;8.484;2022-12-19T17:15:34;33.60;;;23.43;;
8958;SDS011;4514;49.476;8.484;2022-12-19T17:18:03;29.87;;;22.03;;
8958;SDS011;4514;49.476;8.484;2022-12-19T17:20:37;32.80;;;25.00;;
8958;SDS011;4514;49.476;8.484;2022-12-19T17:23:14;25.10;;;18.57;;
8958;SDS011;4514;49.476;8.484;2022-12-19T17:25:43;29.43;;;21.93;;
8958;SDS011;4514;49.476;8.484;2022-12-19T17:28:09;44.70;;;29.70;;
8958;SDS011;4514;49.476;8.484;2022-12-19T17:30:38;33.53;;;22.27;;
8958;SDS011;4514;49.476;8.484;2022-12-19T17:33:06;38.00;;;26.83;;
8958;SDS011;4514;49.476;8.484;2022-12-19T17:35:37;29.73;;;21.37;;
8958;SDS011;4514;49.476;8.484;2022-12-19T17:38:05;31.40;;;22.77;;
8958;SDS011;4514;49.476;8.484;2022-12-19T17:40:31;28.43;;;20.87;;
8958;SDS011;4514;49.476;8.484;2022-12-19T17:42:57;26.17;;;19.43;;